Ferros Ranch-Aero Airport


Codes: 0MO0/
Name: Ferros Ranch-Aero Airport
City: Clinton
Country: United States
Elevation: 775 ft.

Photos at Ferros Ranch-Aero Airport


   Photos courtesy of SpottingLog. You can add your own sightings and photos by signing up for a free trial today.



No photos found.

Weather at Ferros Ranch-Aero Airport


Time (UTC)DescriptionTempratureWindCloud coverageVisibilityPressureHumidity
15-Apr-2024 18:00Overcast Clouds24°C11 mph, SE96%10000m1013hPa71%
15-Apr-2024 21:00Overcast Clouds26°C16 mph, S100%10000m1011hPa62%
16-Apr-2024 00:00Overcast Clouds25°C18 mph, SE100%10000m1006hPa64%
16-Apr-2024 03:00Overcast Clouds21°C7 mph, S100%10000m1007hPa78%
16-Apr-2024 06:00Overcast Clouds19°C9 mph, SE88%10000m1006hPa79%
16-Apr-2024 09:00Light Rain17°C11 mph, SE76%10000m1005hPa87%
16-Apr-2024 12:00Light Rain19°C18 mph, S87%10000m1003hPa90%
16-Apr-2024 15:00Light Rain19°C22 mph, S98%758m1001hPa91%
16-Apr-2024 18:00Light Rain23°C27 mph, S91%10000m1000hPa73%
16-Apr-2024 21:00Clear Sky23°C27 mph, SW0%10000m999hPa41%
17-Apr-2024 00:00Clear Sky21°C22 mph, S0%10000m999hPa50%
17-Apr-2024 03:00Clear Sky21°C27 mph, S3%10000m999hPa39%
17-Apr-2024 06:00Clear Sky18°C16 mph, SW9%10000m1001hPa53%
17-Apr-2024 09:00Few Clouds15°C16 mph, W20%10000m1004hPa67%
17-Apr-2024 12:00Few Clouds13°C13 mph, W22%10000m1007hPa76%
17-Apr-2024 15:00Scattered Clouds16°C18 mph, W37%10000m1009hPa64%
17-Apr-2024 18:00Scattered Clouds20°C18 mph, NW34%10000m1011hPa52%
17-Apr-2024 21:00Clear Sky21°C13 mph, NW0%10000m1011hPa47%
18-Apr-2024 00:00Clear Sky19°C7 mph, NW1%10000m1013hPa62%
18-Apr-2024 03:00Few Clouds14°C7 mph, NE12%10000m1015hPa74%
18-Apr-2024 06:00Clear Sky11°C7 mph, E7%10000m1016hPa80%
18-Apr-2024 09:00Few Clouds9°C9 mph, E15%10000m1015hPa85%
18-Apr-2024 12:00Few Clouds9°C9 mph, NE19%10000m1016hPa82%
18-Apr-2024 15:00Light Rain15°C13 mph, E12%10000m1016hPa63%
18-Apr-2024 18:00Light Rain16°C13 mph, E56%10000m1015hPa63%
18-Apr-2024 21:00Light Rain14°C13 mph, NE100%10000m1014hPa83%
19-Apr-2024 00:00Light Rain11°C20 mph, NE100%10000m1017hPa88%
19-Apr-2024 03:00Light Rain8°C16 mph, NE100%10000m1020hPa89%
19-Apr-2024 06:00Overcast Clouds9°C9 mph, N99%10000m1022hPa88%
19-Apr-2024 09:00Overcast Clouds8°C11 mph, N99%10000m1021hPa86%
19-Apr-2024 12:00Overcast Clouds6°C11 mph, N99%10000m1023hPa78%
19-Apr-2024 15:00Overcast Clouds11°C13 mph, NE100%10000m1025hPa48%
19-Apr-2024 18:00Broken Clouds14°C13 mph, NE82%10000m1024hPa37%
19-Apr-2024 21:00Overcast Clouds15°C11 mph, NE98%10000m1022hPa39%
20-Apr-2024 00:00Overcast Clouds12°C9 mph, NE98%10000m1023hPa53%
20-Apr-2024 03:00Broken Clouds8°C7 mph, NE81%10000m1025hPa60%
20-Apr-2024 06:00Overcast Clouds9°C7 mph, NE85%10000m1025hPa53%
20-Apr-2024 09:00Overcast Clouds8°C11 mph, NE100%10000m1026hPa56%
20-Apr-2024 12:00Overcast Clouds7°C9 mph, NE100%10000m1027hPa47%
20-Apr-2024 15:00Overcast Clouds10°C11 mph, NE85%10000m1027hPa41%